Time;durP1;ratioP1;P1;durP2;ratioP2;P2;SDS_P1;SDS_P2;PMS_P1;PMS_P2;Temp;Humidity;BMP_temperature;BMP_pressure;BME280_temperature;BME280_humidity;BME280_pressure;Samples;Min_cycle;Max_cycle;Signal;HPM_P1;HPM_P2
2023/04/14 00:00:26;;;;;;;;;;;;;;;;;;6133158;23;20248;-86
2023/04/14 00:02:55;;;;;;;;;;;;;;;;;;6157749;23;19947;-87
2023/04/14 00:05:23;;;;;;;;;;;;;;;;;;6133901;23;19920;-86
2023/04/14 00:07:50;;;;;;;;;;;;;;;;;;6166711;23;19927;-87
2023/04/14 00:10:17;;;;;;;;;;;;;;;;;;6193730;23;19920;-87
2023/04/14 00:12:44;;;;;;;;;;;;;;;;;;6158245;23;19947;-88
2023/04/14 00:15:15;;;;;;;;;;;;;;;;;;6134781;23;19924;-86
2023/04/14 00:17:42;;;;;;;;;;;;;;;;;;6193513;23;19920;-86
2023/04/14 00:20:11;;;;;;;;;;;;;;;;;;6183971;23;19927;-87
2023/04/14 00:22:38;;;;;;;;;;;;;;;;;;6157579;23;19920;-86
2023/04/14 00:25:05;;;;;;;;;;;;;;;;;;6158738;23;19935;-86
2023/04/14 00:27:35;;;;;;;;;;;;;;;;;;6157427;23;19924;-87
2023/04/14 00:30:02;;;;;;;;;;;;;;;;;;6167756;23;19964;-86
2023/04/14 00:32:30;;;;;;;;;;;;;;;;;;6133047;23;19920;-87
2023/04/14 00:35:02;;;;;;;;;;;;;;;;;;6133837;23;19920;-86
2023/04/14 00:37:31;;;;;;;;;;;;;;;;;;6167696;23;20336;-87
2023/04/14 00:39:59;;;;;;;;;;;;;;;;;;6132307;23;19924;-87
2023/04/14 00:42:27;;;;;;;;;;;;;;;;;;6167714;23;19927;-87
2023/04/14 00:44:54;;;;;;;;;;;;;;;;;;6133853;23;19924;-86
2023/04/14 00:47:23;;;;;;;;;;;;;;;;;;6158769;23;19931;-87
2023/04/14 00:49:52;;;;;;;;;;;;;;;;;;6157991;23;19936;-88
2023/04/14 00:52:19;;;;;;;;;;;;;;;;;;6167144;23;19927;-85
2023/04/14 00:54:46;;;;;;;;;;;;;;;;;;6158468;23;20337;-86
2023/04/14 00:57:15;;;;;;;;;;;;;;;;;;6133374;23;19927;-87
2023/04/14 00:59:45;;;;;;;;;;;;;;;;;;6158211;23;19920;-88
2023/04/14 01:02:12;;;;;;;;;;;;;;;;;;6132251;23;19927;-88
2023/04/14 01:04:39;;;;;;;;;;;;;;;;;;6167458;23;20248;-87
2023/04/14 01:07:10;;;;;;;;;;;;;;;;;;6133317;23;19932;-87
2023/04/14 01:09:40;;;;;;;;;;;;;;;;;;6159480;23;19920;-88
2023/04/14 01:12:10;;;;;;;;;;;;;;;;;;6166860;23;19924;-88
2023/04/14 01:14:41;;;;;;;;;;;;;;;;;;6158498;23;19920;-87
2023/04/14 01:17:09;;;;;;;;;;;;;;;;;;6157827;23;19943;-87
2023/04/14 01:19:42;;;;;;;;;;;;;;;;;;6133301;23;20363;-86
2023/04/14 01:22:11;;;;;;;;;;;;;;;;;;6166608;23;20253;-87
2023/04/14 01:24:41;;;;;;;;;;;;;;;;;;6168056;23;19920;-88
2023/04/14 01:27:15;;;;;;;;;;;;;;;;;;6132987;23;20253;-85
2023/04/14 01:29:48;;;;;;;;;;;;;;;;;;6158947;23;19920;-87
2023/04/14 01:32:18;;;;;;;;;;;;;;;;;;6166695;23;20344;-87
2023/04/14 01:34:46;;;;;;;;;;;;;;;;;;6132889;23;19920;-86
2023/04/14 01:37:13;;;;;;;;;;;;;;;;;;6132965;23;19935;-86
2023/04/14 01:39:47;;;;;;;;;;;;;;;;;;6161155;23;19936;-87
2023/04/14 01:42:15;;;;;;;;;;;;;;;;;;6160323;23;19924;-87
2023/04/14 01:44:42;;;;;;;;;;;;;;;;;;6159453;23;19927;-87
2023/04/14 01:47:09;;;;;;;;;;;;;;;;;;6171098;23;19920;-86
2023/04/14 01:49:38;;;;;;;;;;;;;;;;;;6162628;23;19935;-86
2023/04/14 01:52:07;;;;;;;;;;;;;;;;;;6135972;23;19925;-87
2023/04/14 01:54:37;;;;;;;;;;;;;;;;;;6196468;23;19927;-87
2023/04/14 01:57:04;;;;;;;;;;;;;;;;;;6170650;23;19931;-87
2023/04/14 01:59:37;;;;;;;;;;;;;;;;;;6161746;23;19928;-87
2023/04/14 02:02:07;;;;;;;;;;;;;;;;;;6160953;23;20325;-87
2023/04/14 02:04:34;;;;;;;;;;;;;;;;;;6169393;23;19947;-87
2023/04/14 02:07:05;;;;;;;;;;;;;;;;;;6136159;23;19920;-87
2023/04/14 02:09:32;;;;;;;;;;;;;;;;;;6187597;23;19920;-88
2023/04/14 02:11:59;;;;;;;;;;;;;;;;;;6161228;23;19925;-88
2023/04/14 02:14:26;;;;;;;;;;;;;;;;;;6135326;23;19927;-86
2023/04/14 02:16:56;;;;;;;;;;;;;;;;;;6160734;23;19932;-86
2023/04/14 02:19:23;;;;;;;;;;;;;;;;;;6136300;23;19921;-86
2023/04/14 02:21:50;;;;;;;;;;;;;;;;;;6135904;23;19927;-87
2023/04/14 02:24:22;;;;;;;;;;;;;;;;;;6159812;23;19921;-85
2023/04/14 02:26:57;;;;;;;;;;;;;;;;;;6159869;23;19928;-87
2023/04/14 02:29:26;;;;;;;;;;;;;;;;;;6160631;23;21353;-87
2023/04/14 02:31:55;;;;;;;;;;;;;;;;;;6136016;23;20257;-87
2023/04/14 02:34:23;;;;;;;;;;;;;;;;;;6159710;23;19924;-86
2023/04/14 02:36:52;;;;;;;;;;;;;;;;;;6159932;23;19927;-87
2023/04/14 02:39:21;;;;;;;;;;;;;;;;;;6135912;23;19928;-87
2023/04/14 02:41:48;;;;;;;;;;;;;;;;;;6187125;23;19921;-87
2023/04/14 02:44:18;;;;;;;;;;;;;;;;;;6135316;23;19920;-87
2023/04/14 02:46:49;;;;;;;;;;;;;;;;;;6135183;23;20391;-87
2023/04/14 02:49:16;;;;;;;;;;;;;;;;;;6135915;23;19928;-87
2023/04/14 02:51:43;;;;;;;;;;;;;;;;;;6159005;23;19947;-87
2023/04/14 02:54:11;;;;;;;;;;;;;;;;;;6159335;23;19931;-88
2023/04/14 02:56:43;;;;;;;;;;;;;;;;;;6133904;23;19921;-87
2023/04/14 02:59:10;;;;;;;;;;;;;;;;;;6134177;23;19927;-87
2023/04/14 03:01:44;;;;;;;;;;;;;;;;;;6169338;23;19920;-88
2023/04/14 03:04:12;;;;;;;;;;;;;;;;;;6159210;23;19920;-87
2023/04/14 03:06:39;;;;;;;;;;;;;;;;;;6158734;23;20364;-87
2023/04/14 03:09:06;;;;;;;;;;;;;;;;;;6158841;23;19927;-87
2023/04/14 03:11:34;;;;;;;;;;;;;;;;;;6168885;23;19928;-87
2023/04/14 03:14:03;;;;;;;;;;;;;;;;;;6168695;23;20337;-88
2023/04/14 03:16:30;;;;;;;;;;;;;;;;;;6133964;23;19955;-87
2023/04/14 03:18:57;;;;;;;;;;;;;;;;;;6157945;23;19943;-87
2023/04/14 03:21:25;;;;;;;;;;;;;;;;;;6134558;23;19920;-87
2023/04/14 03:23:54;;;;;;;;;;;;;;;;;;6167950;23;19927;-87
2023/04/14 03:26:24;;;;;;;;;;;;;;;;;;6169370;23;19920;-87
2023/04/14 03:28:52;;;;;;;;;;;;;;;;;;6157782;23;19924;-86
2023/04/14 03:31:20;;;;;;;;;;;;;;;;;;6159323;23;19920;-86
2023/04/14 03:33:54;;;;;;;;;;;;;;;;;;6168693;23;19920;-86
2023/04/14 03:36:26;;;;;;;;;;;;;;;;;;6167269;23;20366;-88
2023/04/14 03:38:57;;;;;;;;;;;;;;;;;;6161477;23;20340;-89
2023/04/14 03:41:26;;;;;;;;;;;;;;;;;;6132359;23;19924;-89
2023/04/14 03:43:55;;;;;;;;;;;;;;;;;;6133504;23;19927;-89
2023/04/14 03:46:25;;;;;;;;;;;;;;;;;;6158775;23;19920;-88
2023/04/14 03:48:54;;;;;;;;;;;;;;;;;;6132010;23;19927;-88
2023/04/14 03:51:26;;;;;;;;;;;;;;;;;;6156412;23;19924;-88
2023/04/14 03:53:56;;;;;;;;;;;;;;;;;;6134756;23;19935;-88
2023/04/14 03:56:23;;;;;;;;;;;;;;;;;;6158610;23;19920;-88
2023/04/14 03:58:51;;;;;;;;;;;;;;;;;;6185144;23;19920;-89
2023/04/14 04:01:18;;;;;;;;;;;;;;;;;;6167511;23;19920;-88
2023/04/14 04:03:49;;;;;;;;;;;;;;;;;;6134320;23;20367;-88
2023/04/14 04:06:16;;;;;;;;;;;;;;;;;;6158604;23;19920;-89
2023/04/14 04:08:43;;;;;;;;;;;;;;;;;;6133286;23;19927;-90
2023/04/14 04:11:10;;;;;;;;;;;;;;;;;;6193791;23;19920;-89
2023/04/14 04:13:38;;;;;;;;;;;;;;;;;;6158003;23;19920;-89
2023/04/14 04:16:05;;;;;;;;;;;;;;;;;;6133770;23;19927;-89
2023/04/14 04:18:32;;;;;;;;;;;;;;;;;;6157892;23;19929;-89
2023/04/14 04:21:03;;;;;;;;;;;;;;;;;;6157577;23;19920;-88
2023/04/14 04:23:30;;;;;;;;;;;;;;;;;;6167718;23;19921;-88
2023/04/14 04:26:00;;;;;;;;;;;;;;;;;;6158570;23;19927;-87
2023/04/14 04:28:35;;;;;;;;;;;;;;;;;;6132792;23;19925;-89
2023/04/14 04:31:02;;;;;;;;;;;;;;;;;;6157365;23;19920;-89
2023/04/14 04:33:31;;;;;;;;;;;;;;;;;;6183462;23;19920;-86
2023/04/14 04:36:01;;;;;;;;;;;;;;;;;;6158260;23;19927;-88
2023/04/14 04:38:38;;;;;;;;;;;;;;;;;;6164427;23;19931;-89
2023/04/14 04:41:07;;;;;;;;;;;;;;;;;;6158687;23;19928;-88
2023/04/14 04:43:35;;;;;;;;;;;;;;;;;;6167887;23;19920;-88
2023/04/14 04:46:09;;;;;;;;;;;;;;;;;;6133701;23;19928;-88
2023/04/14 04:48:36;;;;;;;;;;;;;;;;;;6164071;23;19921;-89
2023/04/14 04:51:05;;;;;;;;;;;;;;;;;;6134144;23;19927;-87
2023/04/14 04:53:33;;;;;;;;;;;;;;;;;;6167908;23;19920;-88
2023/04/14 04:56:01;;;;;;;;;;;;;;;;;;6167808;23;19920;-88
2023/04/14 04:58:28;;;;;;;;;;;;;;;;;;6184944;23;19924;-88
2023/04/14 05:00:55;;;;;;;;;;;;;;;;;;6158845;23;19920;-89
2023/04/14 05:03:22;;;;;;;;;;;;;;;;;;6167553;23;19920;-88
2023/04/14 05:05:49;;;;;;;;;;;;;;;;;;6133584;23;19920;-88
2023/04/14 05:08:16;;;;;;;;;;;;;;;;;;6165412;23;19947;-90
2023/04/14 05:10:44;;;;;;;;;;;;;;;;;;6194744;23;19921;-89
2023/04/14 05:13:15;;;;;;;;;;;;;;;;;;6184142;23;20341;-89
2023/04/14 05:15:42;;;;;;;;;;;;;;;;;;6133207;23;19927;-89
2023/04/14 05:18:09;;;;;;;;;;;;;;;;;;6158098;23;20256;-89
2023/04/14 05:20:36;;;;;;;;;;;;;;;;;;6168284;23;19920;-89
2023/04/14 05:23:05;;;;;;;;;;;;;;;;;;6194502;23;19955;-89
2023/04/14 05:25:32;;;;;;;;;;;;;;;;;;6158318;23;19931;-88
2023/04/14 05:27:59;;;;;;;;;;;;;;;;;;6158347;23;19921;-89
2023/04/14 05:30:30;;;;;;;;;;;;;;;;;;6157370;23;19954;-88
2023/04/14 05:32:56;;;;;;;;;;;;;;;;;;6157771;23;20340;-87
2023/04/14 05:35:26;;;;;;;;;;;;;;;;;;6184547;23;20256;-88
2023/04/14 05:37:53;;;;;;;;;;;;;;;;;;6133367;23;19920;-89
2023/04/14 05:40:21;;;;;;;;;;;;;;;;;;6132252;23;19924;-89
2023/04/14 05:42:50;;;;;;;;;;;;;;;;;;6184327;23;20342;-89
2023/04/14 05:45:17;;;;;;;;;;;;;;;;;;6157992;23;19921;-89
2023/04/14 11:58:38;;;;;;;;;;;;;;;;;;6163672;23;19920;-90
2023/04/14 12:01:06;;;;;;;;;;;;;;;;;;6167391;23;19924;-89
2023/04/14 12:03:34;;;;;;;;;;;;;;;;;;6170928;23;19920;-90
2023/04/14 12:06:17;;;;;;;;;;;;;;;;;;6235309;23;19930;-91
2023/04/14 12:08:49;;;;;;;;;;;;;;;;;;6203147;23;19920;-92
2023/04/14 12:11:17;;;;;;;;;;;;;;;;;;6203469;23;19920;-89
2023/04/14 12:13:49;;;;;;;;;;;;;;;;;;6203276;23;20263;-91
2023/04/14 12:16:22;;;;;;;;;;;;;;;;;;6205515;23;19920;-92
2023/04/14 12:18:52;;;;;;;;;;;;;;;;;;6204920;23;19926;-90
2023/04/14 12:21:23;;;;;;;;;;;;;;;;;;6180388;23;19923;-92
2023/04/14 12:23:54;;;;;;;;;;;;;;;;;;6205860;23;19926;-92
2023/04/14 12:26:21;;;;;;;;;;;;;;;;;;6204906;23;19920;-91
2023/04/14 12:28:57;;;;;;;;;;;;;;;;;;6229731;23;19933;-90
2023/04/14 12:31:28;;;;;;;;;;;;;;;;;;6200465;23;19920;-91
2023/04/14 12:34:00;;;;;;;;;;;;;;;;;;6225302;23;19925;-90
2023/04/14 12:36:28;;;;;;;;;;;;;;;;;;6199181;23;19924;-91
2023/04/14 12:38:56;;;;;;;;;;;;;;;;;;6201639;23;19926;-90
2023/04/14 12:41:25;;;;;;;;;;;;;;;;;;6226932;23;19926;-92
2023/04/14 12:44:06;;;;;;;;;;;;;;;;;;6176731;23;19919;-90
2023/04/14 12:46:35;;;;;;;;;;;;;;;;;;6228053;23;19920;-90
2023/04/14 12:49:02;;;;;;;;;;;;;;;;;;6181112;23;19923;-91
2023/04/14 12:51:30;;;;;;;;;;;;;;;;;;6227959;23;19919;-90
2023/04/14 12:54:13;;;;;;;;;;;;;;;;;;6228802;23;19934;-91
2023/04/14 12:56:41;;;;;;;;;;;;;;;;;;6212838;23;19932;-91
2023/04/14 12:59:08;;;;;;;;;;;;;;;;;;6201727;23;19923;-92
2023/04/14 13:01:46;;;;;;;;;;;;;;;;;;6200583;23;20183;-90
2023/04/14 13:04:13;;;;;;;;;;;;;;;;;;6229246;23;20267;-90
2023/04/14 13:06:43;;;;;;;;;;;;;;;;;;6224598;23;19934;-89
2023/04/14 13:09:12;;;;;;;;;;;;;;;;;;6201047;23;19926;-91
2023/04/14 13:11:43;;;;;;;;;;;;;;;;;;6200725;23;19919;-90
2023/04/14 13:14:12;;;;;;;;;;;;;;;;;;6199915;23;19926;-91
2023/04/14 13:16:44;;;;;;;;;;;;;;;;;;6226872;23;20262;-90
2023/04/14 13:19:11;;;;;;;;;;;;;;;;;;6227428;23;19926;-91
2023/04/14 13:21:43;;;;;;;;;;;;;;;;;;6206933;23;19919;-90
2023/04/14 13:24:11;;;;;;;;;;;;;;;;;;6203915;23;19926;-88
2023/04/14 13:26:38;;;;;;;;;;;;;;;;;;6207680;23;19923;-91
2023/04/14 13:29:06;;;;;;;;;;;;;;;;;;6204643;23;20393;-89
2023/04/14 13:31:34;;;;;;;;;;;;;;;;;;6182868;23;19920;-90
2023/04/14 13:34:03;;;;;;;;;;;;;;;;;;6207413;23;19928;-92
2023/04/14 13:36:30;;;;;;;;;;;;;;;;;;6230086;23;20343;-91
2023/04/14 13:39:02;;;;;;;;;;;;;;;;;;6202436;23;19926;-91
2023/04/14 13:41:29;;;;;;;;;;;;;;;;;;6198155;23;19924;-89
2023/04/14 13:43:57;;;;;;;;;;;;;;;;;;6197805;23;19926;-90
2023/04/14 13:46:24;;;;;;;;;;;;;;;;;;6223146;23;19926;-90
2023/04/14 13:48:52;;;;;;;;;;;;;;;;;;6225173;23;20351;-89
2023/04/14 13:51:27;;;;;;;;;;;;;;;;;;6199678;23;19926;-90
2023/04/14 13:53:55;;;;;;;;;;;;;;;;;;6199147;23;20029;-92
2023/04/14 13:56:24;;;;;;;;;;;;;;;;;;6173762;23;19926;-89
2023/04/14 13:58:51;;;;;;;;;;;;;;;;;;6197607;23;19920;-90
2023/04/14 14:01:21;;;;;;;;;;;;;;;;;;6197942;23;19935;-91
2023/04/14 14:03:49;;;;;;;;;;;;;;;;;;6195577;23;19923;-91
2023/04/14 14:06:17;;;;;;;;;;;;;;;;;;6196485;23;19920;-91
2023/04/14 14:08:46;;;;;;;;;;;;;;;;;;6196988;23;19919;-89
2023/04/14 14:11:17;;;;;;;;;;;;;;;;;;6195412;23;19920;-90
2023/04/14 14:13:45;;;;;;;;;;;;;;;;;;6219587;23;19919;-90
2023/04/14 14:16:16;;;;;;;;;;;;;;;;;;6195416;23;19920;-92
2023/04/14 14:18:45;;;;;;;;;;;;;;;;;;6195661;23;19926;-90
2023/04/14 14:21:12;;;;;;;;;;;;;;;;;;6195365;23;19920;-89
2023/04/14 14:23:41;;;;;;;;;;;;;;;;;;6194401;23;19923;-90
2023/04/14 14:26:15;;;;;;;;;;;;;;;;;;6195228;23;19920;-90
2023/04/14 14:28:43;;;;;;;;;;;;;;;;;;6246812;23;20537;-91
2023/04/14 14:31:11;;;;;;;;;;;;;;;;;;6195036;23;19919;-91
2023/04/14 14:33:40;;;;;;;;;;;;;;;;;;6194691;23;19931;-91
2023/04/14 14:36:07;;;;;;;;;;;;;;;;;;6196610;23;19926;-92
2023/04/14 14:38:34;;;;;;;;;;;;;;;;;;6197062;23;19927;-91
2023/04/14 14:41:01;;;;;;;;;;;;;;;;;;6198105;23;19919;-89
2023/04/14 14:43:30;;;;;;;;;;;;;;;;;;6197417;23;20385;-90
2023/04/14 14:46:00;;;;;;;;;;;;;;;;;;6197835;23;19930;-89
2023/04/14 14:48:27;;;;;;;;;;;;;;;;;;6199221;23;19919;-89
2023/04/14 14:50:55;;;;;;;;;;;;;;;;;;6224933;23;19935;-91
2023/04/14 14:53:22;;;;;;;;;;;;;;;;;;6224283;23;19920;-89
2023/04/14 14:55:54;;;;;;;;;;;;;;;;;;6223434;23;19963;-88
2023/04/14 14:58:24;;;;;;;;;;;;;;;;;;6198443;23;20278;-88
2023/04/14 15:00:54;;;;;;;;;;;;;;;;;;6200353;23;19926;-89
2023/04/14 15:03:30;;;;;;;;;;;;;;;;;;6202394;23;19923;-90
2023/04/14 15:05:57;;;;;;;;;;;;;;;;;;6200791;23;19924;-89
2023/04/14 15:08:28;;;;;;;;;;;;;;;;;;6202153;23;19923;-89
2023/04/14 15:11:00;;;;;;;;;;;;;;;;;;6226340;23;19923;-91
2023/04/14 15:13:47;;;;;;;;;;;;;;;;;;6199501;23;19950;-89
2023/04/14 15:16:16;;;;;;;;;;;;;;;;;;6234183;23;19919;-89
2023/04/14 15:18:43;;;;;;;;;;;;;;;;;;6224320;23;19924;-89
2023/04/14 15:21:20;;;;;;;;;;;;;;;;;;6199130;23;19930;-90
2023/04/14 15:23:47;;;;;;;;;;;;;;;;;;6199481;23;19926;-90
2023/04/14 15:26:14;;;;;;;;;;;;;;;;;;6224392;23;19920;-90
2023/04/14 15:28:41;;;;;;;;;;;;;;;;;;6198150;23;19919;-90
2023/04/14 15:31:10;;;;;;;;;;;;;;;;;;6223836;23;19924;-90
2023/04/14 15:33:38;;;;;;;;;;;;;;;;;;6198084;23;19919;-89
2023/04/14 15:36:06;;;;;;;;;;;;;;;;;;6198602;23;19930;-89
2023/04/14 15:38:33;;;;;;;;;;;;;;;;;;6198555;23;19930;-89
2023/04/14 15:41:01;;;;;;;;;;;;;;;;;;6223796;23;19919;-90
2023/04/14 15:43:31;;;;;;;;;;;;;;;;;;6199526;23;19945;-90
2023/04/14 15:45:58;;;;;;;;;;;;;;;;;;6198907;23;19923;-92
2023/04/14 15:48:29;;;;;;;;;;;;;;;;;;6199020;23;19928;-90
2023/04/14 15:50:58;;;;;;;;;;;;;;;;;;6198330;23;19920;-89
2023/04/14 15:53:25;;;;;;;;;;;;;;;;;;6198582;23;19919;-90
2023/04/14 15:55:52;;;;;;;;;;;;;;;;;;6224626;23;20343;-91
2023/04/14 15:58:21;;;;;;;;;;;;;;;;;;6197170;23;19924;-90
2023/04/14 16:00:53;;;;;;;;;;;;;;;;;;6198294;23;20380;-89
2023/04/14 16:03:21;;;;;;;;;;;;;;;;;;6196051;23;19924;-89
2023/04/14 16:05:48;;;;;;;;;;;;;;;;;;6218809;23;20124;-90
2023/04/14 16:08:17;;;;;;;;;;;;;;;;;;6196022;23;19920;-89
2023/04/14 16:10:47;;;;;;;;;;;;;;;;;;6196100;23;19920;-90
2023/04/14 16:13:17;;;;;;;;;;;;;;;;;;6220442;23;19923;-90
2023/04/14 16:15:46;;;;;;;;;;;;;;;;;;6221242;23;19921;-89
2023/04/14 16:18:13;;;;;;;;;;;;;;;;;;6193733;23;19927;-91
2023/04/14 16:20:41;;;;;;;;;;;;;;;;;;6195746;23;20347;-91
2023/04/14 16:23:10;;;;;;;;;;;;;;;;;;6220424;23;19930;-91
2023/04/14 16:25:39;;;;;;;;;;;;;;;;;;6219318;23;19967;-90
2023/04/14 16:28:06;;;;;;;;;;;;;;;;;;6219488;23;19930;-89
2023/04/14 16:30:33;;;;;;;;;;;;;;;;;;6194496;23;19920;-90
2023/04/14 16:33:00;;;;;;;;;;;;;;;;;;6194728;23;20362;-89
2023/04/14 16:35:29;;;;;;;;;;;;;;;;;;6193485;23;19924;-88
2023/04/14 16:37:57;;;;;;;;;;;;;;;;;;6217900;23;19920;-89
2023/04/14 16:40:26;;;;;;;;;;;;;;;;;;6194115;23;19939;-89
2023/04/14 16:42:55;;;;;;;;;;;;;;;;;;6218562;23;19920;-89
2023/04/14 16:45:22;;;;;;;;;;;;;;;;;;6191897;23;19919;-89
2023/04/14 16:47:49;;;;;;;;;;;;;;;;;;6195587;23;19920;-89
2023/04/14 16:50:16;;;;;;;;;;;;;;;;;;6195221;23;20347;-88
2023/04/14 16:52:43;;;;;;;;;;;;;;;;;;6194745;23;20244;-89
2023/04/14 16:55:11;;;;;;;;;;;;;;;;;;6194223;23;19923;-89
2023/04/14 16:57:41;;;;;;;;;;;;;;;;;;6195285;23;19920;-90
2023/04/14 17:00:15;;;;;;;;;;;;;;;;;;6219811;23;19923;-89
2023/04/14 17:02:43;;;;;;;;;;;;;;;;;;6193667;23;19926;-89
2023/04/14 17:05:14;;;;;;;;;;;;;;;;;;6195040;23;19919;-90
2023/04/14 17:07:41;;;;;;;;;;;;;;;;;;6195610;23;19924;-91
2023/04/14 17:10:10;;;;;;;;;;;;;;;;;;6193823;23;19927;-89
2023/04/14 17:12:41;;;;;;;;;;;;;;;;;;6219861;23;19926;-89
2023/04/14 17:15:11;;;;;;;;;;;;;;;;;;6219932;23;19919;-89
2023/04/14 17:17:41;;;;;;;;;;;;;;;;;;6248071;23;19926;-90
2023/04/14 17:20:09;;;;;;;;;;;;;;;;;;6195475;23;19934;-91
2023/04/14 17:22:39;;;;;;;;;;;;;;;;;;6194139;23;19927;-90
2023/04/14 17:25:17;;;;;;;;;;;;;;;;;;6220742;23;20370;-91
2023/04/14 17:27:45;;;;;;;;;;;;;;;;;;6196293;23;20343;-90
2023/04/14 17:30:14;;;;;;;;;;;;;;;;;;6219828;23;19923;-88
2023/04/14 17:32:41;;;;;;;;;;;;;;;;;;6221487;23;19927;-91
2023/04/14 17:35:09;;;;;;;;;;;;;;;;;;6220869;23;19920;-89
2023/04/14 17:37:38;;;;;;;;;;;;;;;;;;6196395;23;19919;-88
2023/04/14 17:40:07;;;;;;;;;;;;;;;;;;6196677;23;19926;-90
2023/04/14 17:42:34;;;;;;;;;;;;;;;;;;6198642;23;19919;-91
2023/04/14 17:45:05;;;;;;;;;;;;;;;;;;6221748;23;20274;-90
2023/04/14 17:47:36;;;;;;;;;;;;;;;;;;6174759;23;19923;-91
2023/04/14 18:26:08;;;;;;;;;;;;;;;;;;6184607;23;20011;-92
2023/04/14 18:28:35;;;;;;;;;;;;;;;;;;6231211;23;19927;-89
2023/04/14 18:31:03;;;;;;;;;;;;;;;;;;6187717;23;19920;-92
2023/04/14 18:33:32;;;;;;;;;;;;;;;;;;6217310;23;19924;-91
2023/04/14 18:36:00;;;;;;;;;;;;;;;;;;6217807;23;19931;-90
2023/04/14 18:38:27;;;;;;;;;;;;;;;;;;6220891;23;20339;-91
2023/04/14 18:40:54;;;;;;;;;;;;;;;;;;6220680;23;19920;-92
2023/04/14 18:43:23;;;;;;;;;;;;;;;;;;6193264;23;19928;-92
2023/04/14 18:45:50;;;;;;;;;;;;;;;;;;6192216;23;19920;-91
2023/04/14 18:48:18;;;;;;;;;;;;;;;;;;6169238;23;19958;-91
2023/04/14 18:50:45;;;;;;;;;;;;;;;;;;6167182;23;20344;-90
2023/04/14 18:53:12;;;;;;;;;;;;;;;;;;6164728;23;19927;-90
2023/04/14 18:55:39;;;;;;;;;;;;;;;;;;6225835;23;19927;-91
2023/04/14 18:58:11;;;;;;;;;;;;;;;;;;6165497;23;19924;-90
2023/04/14 19:00:39;;;;;;;;;;;;;;;;;;6218722;23;19920;-91
2023/04/14 19:03:07;;;;;;;;;;;;;;;;;;6165457;23;20257;-91
2023/04/14 19:05:35;;;;;;;;;;;;;;;;;;6163324;23;19920;-91
2023/04/14 19:08:02;;;;;;;;;;;;;;;;;;6189569;23;19920;-91
2023/04/14 19:10:30;;;;;;;;;;;;;;;;;;6218434;23;19924;-91
2023/04/14 19:12:57;;;;;;;;;;;;;;;;;;6216362;23;19920;-89
2023/04/14 19:15:26;;;;;;;;;;;;;;;;;;6215727;23;19920;-91
2023/04/14 19:17:54;;;;;;;;;;;;;;;;;;6219385;23;19920;-91
2023/04/14 19:20:21;;;;;;;;;;;;;;;;;;6207189;23;19923;-90
2023/04/14 19:22:49;;;;;;;;;;;;;;;;;;6209679;23;19920;-91
2023/04/14 19:25:16;;;;;;;;;;;;;;;;;;6239706;23;19919;-89
2023/04/14 19:27:44;;;;;;;;;;;;;;;;;;6231419;23;19920;-91
2023/04/14 19:30:12;;;;;;;;;;;;;;;;;;6168055;23;19920;-90
2023/04/14 19:32:39;;;;;;;;;;;;;;;;;;6170127;23;19920;-91
2023/04/14 19:35:08;;;;;;;;;;;;;;;;;;6195607;23;19946;-90
2023/04/14 19:37:36;;;;;;;;;;;;;;;;;;6190774;23;19928;-91
2023/04/14 19:40:04;;;;;;;;;;;;;;;;;;6188887;23;19920;-90
2023/04/14 19:42:32;;;;;;;;;;;;;;;;;;6214293;23;19919;-91
2023/04/14 19:44:59;;;;;;;;;;;;;;;;;;6188407;23;19927;-90
2023/04/14 19:47:26;;;;;;;;;;;;;;;;;;6187950;23;20253;-90
2023/04/14 19:49:54;;;;;;;;;;;;;;;;;;6192348;23;20324;-90
2023/04/14 19:52:22;;;;;;;;;;;;;;;;;;6188250;23;19927;-92
2023/04/14 19:54:49;;;;;;;;;;;;;;;;;;6163677;23;19920;-91
2023/04/14 19:57:16;;;;;;;;;;;;;;;;;;6188014;23;19931;-90
2023/04/14 19:59:44;;;;;;;;;;;;;;;;;;6188181;23;19920;-90
2023/04/14 20:02:11;;;;;;;;;;;;;;;;;;6187896;23;20229;-90
2023/04/14 20:04:38;;;;;;;;;;;;;;;;;;6214813;23;19926;-90
2023/04/14 20:07:06;;;;;;;;;;;;;;;;;;6188667;23;20311;-90
2023/04/14 20:09:34;;;;;;;;;;;;;;;;;;6214662;23;20337;-91
2023/04/14 20:12:01;;;;;;;;;;;;;;;;;;6162260;23;19923;-91
2023/04/14 20:14:29;;;;;;;;;;;;;;;;;;6215847;23;19919;-91
2023/04/14 20:16:56;;;;;;;;;;;;;;;;;;6162298;23;20360;-91
2023/04/14 20:19:23;;;;;;;;;;;;;;;;;;6222274;23;19943;-92
2023/04/14 20:21:50;;;;;;;;;;;;;;;;;;6214844;23;20402;-90
2023/04/14 20:24:20;;;;;;;;;;;;;;;;;;6188627;23;19923;-91
2023/04/14 20:26:48;;;;;;;;;;;;;;;;;;6214925;23;19919;-91
2023/04/14 20:29:16;;;;;;;;;;;;;;;;;;6162151;23;19919;-91
2023/04/14 20:31:43;;;;;;;;;;;;;;;;;;6225054;23;19919;-91
2023/04/14 20:34:10;;;;;;;;;;;;;;;;;;6214417;23;20354;-91
2023/04/14 20:36:38;;;;;;;;;;;;;;;;;;6189014;23;19920;-90
2023/04/14 20:39:05;;;;;;;;;;;;;;;;;;6190306;23;19930;-91
2023/04/14 20:41:33;;;;;;;;;;;;;;;;;;6168024;23;19920;-90
2023/04/14 20:44:02;;;;;;;;;;;;;;;;;;6162227;23;20358;-90
2023/04/14 20:46:31;;;;;;;;;;;;;;;;;;6229009;23;20363;-91
2023/04/14 20:48:59;;;;;;;;;;;;;;;;;;6187689;23;19920;-90
2023/04/14 20:51:26;;;;;;;;;;;;;;;;;;6163034;23;19923;-89
2023/04/14 20:53:55;;;;;;;;;;;;;;;;;;6187860;23;19920;-90
2023/04/14 20:56:27;;;;;;;;;;;;;;;;;;6164077;23;19920;-90
2023/04/14 20:58:54;;;;;;;;;;;;;;;;;;6187832;23;19927;-91
2023/04/14 21:01:24;;;;;;;;;;;;;;;;;;6214362;23;19927;-91
2023/04/14 21:03:53;;;;;;;;;;;;;;;;;;6186983;23;19943;-90
2023/04/14 21:06:20;;;;;;;;;;;;;;;;;;6163442;23;19927;-90
2023/04/14 21:08:50;;;;;;;;;;;;;;;;;;6162997;23;19920;-91
2023/04/14 21:11:17;;;;;;;;;;;;;;;;;;6188254;23;19924;-91
2023/04/14 21:13:46;;;;;;;;;;;;;;;;;;6186742;23;19924;-91
2023/04/14 21:16:14;;;;;;;;;;;;;;;;;;6187935;23;19943;-90
2023/04/14 21:18:45;;;;;;;;;;;;;;;;;;6187479;23;19920;-91
2023/04/14 21:21:15;;;;;;;;;;;;;;;;;;6161297;23;20336;-89
2023/04/14 21:23:42;;;;;;;;;;;;;;;;;;6162191;23;20391;-90
2023/04/14 21:26:09;;;;;;;;;;;;;;;;;;6188042;23;19920;-91
2023/04/14 21:28:36;;;;;;;;;;;;;;;;;;6187926;23;19927;-89
2023/04/14 21:31:03;;;;;;;;;;;;;;;;;;6187635;23;19935;-89
2023/04/14 21:33:30;;;;;;;;;;;;;;;;;;6162309;23;19927;-89
2023/04/14 21:35:59;;;;;;;;;;;;;;;;;;6163135;23;19924;-89
2023/04/14 21:38:28;;;;;;;;;;;;;;;;;;6213741;23;20260;-90
2023/04/14 21:40:55;;;;;;;;;;;;;;;;;;6186722;23;19943;-90
2023/04/14 21:43:22;;;;;;;;;;;;;;;;;;6187680;23;19920;-90
2023/04/14 21:45:51;;;;;;;;;;;;;;;;;;6214098;23;19920;-89
2023/04/14 21:48:19;;;;;;;;;;;;;;;;;;6213087;23;19935;-89
2023/04/14 21:50:46;;;;;;;;;;;;;;;;;;6162741;23;20260;-90
2023/04/14 21:53:15;;;;;;;;;;;;;;;;;;6186834;23;19920;-90
2023/04/14 21:55:42;;;;;;;;;;;;;;;;;;6215159;23;20328;-89
2023/04/14 21:58:11;;;;;;;;;;;;;;;;;;6189117;23;20276;-90
2023/04/14 22:00:39;;;;;;;;;;;;;;;;;;6217675;23;19920;-90
2023/04/14 22:03:06;;;;;;;;;;;;;;;;;;6189196;23;19943;-90
2023/04/14 22:05:34;;;;;;;;;;;;;;;;;;6164746;23;19935;-90
2023/04/14 22:08:03;;;;;;;;;;;;;;;;;;6189340;23;20340;-89
2023/04/14 22:10:31;;;;;;;;;;;;;;;;;;6189673;23;19919;-90
2023/04/14 22:12:59;;;;;;;;;;;;;;;;;;6163605;23;19939;-90
2023/04/14 22:15:26;;;;;;;;;;;;;;;;;;6164463;23;19927;-90
2023/04/14 22:17:53;;;;;;;;;;;;;;;;;;6189547;23;19920;-88
2023/04/14 22:20:22;;;;;;;;;;;;;;;;;;6164495;23;19920;-89
2023/04/14 22:22:49;;;;;;;;;;;;;;;;;;6164074;23;19924;-89
2023/04/14 22:25:16;;;;;;;;;;;;;;;;;;6188054;23;19920;-89
2023/04/14 22:27:47;;;;;;;;;;;;;;;;;;6189249;23;19927;-88
2023/04/14 22:30:17;;;;;;;;;;;;;;;;;;6164684;23;19919;-89
2023/04/14 22:32:44;;;;;;;;;;;;;;;;;;6215852;23;19919;-89
2023/04/14 22:35:15;;;;;;;;;;;;;;;;;;6215596;23;20355;-89
2023/04/14 22:37:42;;;;;;;;;;;;;;;;;;6188551;23;19935;-89
2023/04/14 22:40:09;;;;;;;;;;;;;;;;;;6216246;23;19924;-89
2023/04/14 22:42:38;;;;;;;;;;;;;;;;;;6164031;23;19927;-90
2023/04/14 22:45:07;;;;;;;;;;;;;;;;;;6224932;23;19923;-90
2023/04/14 22:47:34;;;;;;;;;;;;;;;;;;6225055;23;20295;-90
2023/04/14 22:50:01;;;;;;;;;;;;;;;;;;6188964;23;20336;-90
2023/04/14 22:52:28;;;;;;;;;;;;;;;;;;6189076;23;19920;-90
2023/04/14 22:54:55;;;;;;;;;;;;;;;;;;6215236;23;19927;-88
2023/04/14 22:57:22;;;;;;;;;;;;;;;;;;6188596;23;19920;-90
2023/04/14 22:59:49;;;;;;;;;;;;;;;;;;6220762;23;19923;-89
2023/04/14 23:02:17;;;;;;;;;;;;;;;;;;6188524;23;19939;-90
2023/04/14 23:04:44;;;;;;;;;;;;;;;;;;6215726;23;19920;-89
2023/04/14 23:07:14;;;;;;;;;;;;;;;;;;6187613;23;20252;-89
2023/04/14 23:09:41;;;;;;;;;;;;;;;;;;6189393;23;19927;-88
2023/04/14 23:12:08;;;;;;;;;;;;;;;;;;6164394;23;19927;-87
2023/04/14 23:14:35;;;;;;;;;;;;;;;;;;6225102;23;20355;-88
2023/04/14 23:17:03;;;;;;;;;;;;;;;;;;6215629;23;20336;-88
2023/04/14 23:19:32;;;;;;;;;;;;;;;;;;6215332;23;19927;-89
2023/04/14 23:21:59;;;;;;;;;;;;;;;;;;6216126;23;19942;-88
2023/04/14 23:24:26;;;;;;;;;;;;;;;;;;6214607;23;19920;-89
2023/04/14 23:26:53;;;;;;;;;;;;;;;;;;6189054;23;19927;-90
2023/04/14 23:29:20;;;;;;;;;;;;;;;;;;6215256;23;19920;-90
2023/04/14 23:31:47;;;;;;;;;;;;;;;;;;6216390;23;19919;-90
2023/04/14 23:34:17;;;;;;;;;;;;;;;;;;6188495;23;19924;-90
2023/04/14 23:36:47;;;;;;;;;;;;;;;;;;6188491;23;19934;-89
2023/04/14 23:39:14;;;;;;;;;;;;;;;;;;6163625;23;19920;-89
2023/04/14 23:41:41;;;;;;;;;;;;;;;;;;6188784;23;19923;-88